Time,TemperatureF,DewpointF,PressureIn,WindDirection,WindDirectionDegrees,WindSpeedMPH,WindSpeedGustMPH,Humidity,HourlyPrecipIn,Conditions,Clouds,dailyrainin,SoftwareType,DateUTC
2013-01-14 00:05:00,41.6,6.5,30.29,West,268,6.0,11.0,23,0.00,,,0.00,Wunderground v.1.15,2013-01-14 08:05:00,
2013-01-14 00:15:00,41.6,6.5,30.29,West,271,8.0,8.0,23,0.00,,,0.00,Wunderground v.1.15,2013-01-14 08:15:00,
2013-01-14 00:20:00,41.5,7.3,30.29,WSW,247,8.0,8.0,24,0.00,,,0.00,Wunderground v.1.15,2013-01-14 08:20:00,
2013-01-14 00:30:00,41.5,7.3,30.29,West,259,9.0,9.0,24,0.00,,,0.00,Wunderground v.1.15,2013-01-14 08:30:00,
2013-01-14 00:35:00,41.5,7.3,30.29,WNW,294,8.0,9.0,24,0.00,,,0.00,Wunderground v.1.15,2013-01-14 08:35:00,
2013-01-14 00:40:00,41.5,6.4,30.29,SW,229,7.0,7.0,23,0.00,,,0.00,Wunderground v.1.15,2013-01-14 08:40:00,
2013-01-14 00:50:00,41.3,7.2,30.30,West,278,6.0,6.0,24,0.00,,,0.00,Wunderground v.1.15,2013-01-14 08:50:00,
2013-01-14 00:55:00,41.1,7.9,30.30,WSW,257,5.0,6.0,25,0.00,,,0.00,Wunderground v.1.15,2013-01-14 08:55:00,
2013-01-14 01:05:00,41.1,7.9,30.31,West,262,6.0,9.0,25,0.00,,,0.00,Wunderground v.1.15,2013-01-14 09:05:00,
2013-01-14 01:10:00,41.1,7.9,30.31,WSW,241,6.0,6.0,25,0.00,,,0.00,Wunderground v.1.15,2013-01-14 09:10:00,
2013-01-14 01:20:00,40.9,7.7,30.30,WSW,252,8.0,8.0,25,0.00,,,0.00,Wunderground v.1.15,2013-01-14 09:20:00,
2013-01-14 01:25:00,40.9,6.8,30.30,SW,226,6.0,8.0,24,0.00,,,0.00,Wunderground v.1.15,2013-01-14 09:25:00,
2013-01-14 01:30:00,41.2,7.1,30.30,WSW,254,8.0,12.0,24,0.00,,,0.00,Wunderground v.1.15,2013-01-14 09:30:00,
2013-01-14 01:35:00,41.3,7.2,30.30,WSW,258,9.0,12.0,24,0.00,,,0.00,Wunderground v.1.15,2013-01-14 09:35:00,
2013-01-14 01:45:00,41.1,7.0,30.31,West,261,5.0,10.0,24,0.00,,,0.00,Wunderground v.1.15,2013-01-14 09:45:00,
2013-01-14 01:55:00,41.2,7.1,30.31,WSW,242,6.0,6.0,24,0.00,,,0.00,Wunderground v.1.15,2013-01-14 09:55:00,
2013-01-14 02:00:00,41.3,6.2,30.31,West,276,7.0,11.0,23,0.00,,,0.00,Wunderground v.1.15,2013-01-14 10:00:00,
2013-01-14 02:05:00,41.8,6.6,30.31,WNW,302,10.0,11.0,23,0.00,,,0.00,Wunderground v.1.15,2013-01-14 10:05:00,
2013-01-14 02:15:00,41.6,6.5,30.31,WSW,252,10.0,15.0,23,0.00,,,0.00,Wunderground v.1.15,2013-01-14 10:15:00,
2013-01-14 02:20:00,41.6,6.5,30.31,NW,319,10.0,15.0,23,0.00,,,0.00,Wunderground v.1.15,2013-01-14 10:20:00,
2013-01-14 02:25:00,41.6,6.5,30.31,WNW,282,9.0,15.0,23,0.00,,,0.00,Wunderground v.1.15,2013-01-14 10:25:00,
2013-01-14 02:30:00,41.5,6.4,30.31,SW,236,8.0,8.0,23,0.00,,,0.00,Wunderground v.1.15,2013-01-14 10:30:00,
2013-01-14 02:40:00,41.1,7.9,30.31,WSW,251,5.0,5.0,25,0.00,,,0.00,Wunderground v.1.15,2013-01-14 10:40:00,
2013-01-14 02:45:00,40.9,7.7,30.31,SW,230,4.0,5.0,25,0.00,,,0.00,Wunderground v.1.15,2013-01-14 10:45:00,
2013-01-14 02:50:00,40.8,7.6,30.31,WNW,285,4.0,5.0,25,0.00,,,0.00,Wunderground v.1.15,2013-01-14 10:50:00,
2013-01-14 02:55:00,40.5,7.4,30.31,SSW,203,4.0,6.0,25,0.00,,,0.00,Wunderground v.1.15,2013-01-14 10:55:00,
2013-01-14 03:00:00,40.5,7.4,30.31,SE,146,4.0,8.0,25,0.00,,,0.00,Wunderground v.1.15,2013-01-14 11:00:00,
2013-01-14 03:10:00,40.9,6.8,30.31,SSW,209,5.0,7.0,24,0.00,,,0.00,Wunderground v.1.15,2013-01-14 11:10:00,
2013-01-14 03:15:00,41.1,7.0,30.32,WSW,237,5.0,9.0,24,0.00,,,0.00,Wunderground v.1.15,2013-01-14 11:15:00,
2013-01-14 03:20:00,41.3,6.2,30.32,North,9,6.0,6.0,23,0.00,,,0.00,Wunderground v.1.15,2013-01-14 11:20:00,
2013-01-14 03:25:00,41.6,6.5,30.32,WSW,253,10.0,18.0,23,0.00,,,0.00,Wunderground v.1.15,2013-01-14 11:25:00,
2013-01-14 03:30:00,41.6,6.5,30.32,WSW,256,12.0,12.0,23,0.00,,,0.00,Wunderground v.1.15,2013-01-14 11:30:00,
2013-01-14 03:40:00,41.5,6.4,30.32,SW,236,11.0,11.0,23,0.00,,,0.00,Wunderground v.1.15,2013-01-14 11:40:00,
2013-01-14 03:45:00,41.3,6.2,30.30,West,271,9.0,11.0,23,0.00,,,0.00,Wunderground v.1.15,2013-01-14 11:45:00,
2013-01-14 03:50:00,41.3,6.2,30.30,WSW,242,8.0,8.0,23,0.00,,,0.00,Wunderground v.1.15,2013-01-14 11:50:00,
2013-01-14 03:55:00,41.3,6.2,30.30,WSW,246,8.0,8.0,23,0.00,,,0.00,Wunderground v.1.15,2013-01-14 11:55:00,
2013-01-14 04:05:00,41.6,6.5,30.31,NNW,334,10.0,11.0,23,0.00,,,0.00,Wunderground v.1.15,2013-01-14 12:05:00,
2013-01-14 04:10:00,41.8,5.7,30.31,SW,234,12.0,12.0,22,0.00,,,0.00,Wunderground v.1.15,2013-01-14 12:10:00,
2013-01-14 04:15:00,41.8,5.7,30.31,West,265,11.0,16.0,22,0.00,,,0.00,Wunderground v.1.15,2013-01-14 12:15:00,
2013-01-14 04:20:00,41.6,6.5,30.31,WSW,250,9.0,14.0,23,0.00,,,0.00,Wunderground v.1.15,2013-01-14 12:20:00,
2013-01-14 04:25:00,41.6,5.5,30.31,SW,217,9.0,14.0,22,0.00,,,0.00,Wunderground v.1.15,2013-01-14 12:25:00,
2013-01-14 04:35:00,41.6,6.5,30.33,NNW,342,8.0,9.0,23,0.00,,,0.00,Wunderground v.1.15,2013-01-14 12:35:00,
2013-01-14 04:40:00,41.5,6.4,30.33,WNW,291,7.0,7.0,23,0.00,,,0.00,Wunderground v.1.15,2013-01-14 12:40:00,
2013-01-14 04:45:00,41.3,6.2,30.33,WNW,285,5.0,9.0,23,0.00,,,0.00,Wunderground v.1.15,2013-01-14 12:45:00,
2013-01-14 04:50:00,41.5,6.4,30.33,SW,223,5.0,5.0,23,0.00,,,0.00,Wunderground v.1.15,2013-01-14 12:50:00,
2013-01-14 05:00:00,40.9,6.8,30.33,SW,215,4.0,4.0,24,0.00,,,0.00,Wunderground v.1.15,2013-01-14 13:00:00,
2013-01-14 05:05:00,40.5,6.5,30.33,SSE,150,2.0,5.0,24,0.00,,,0.00,Wunderground v.1.15,2013-01-14 13:05:00,
2013-01-14 05:10:00,40.5,7.4,30.33,West,281,2.0,5.0,25,0.00,,,0.00,Wunderground v.1.15,2013-01-14 13:10:00,
2013-01-14 05:15:00,40.5,6.5,30.33,West,275,4.0,8.0,24,0.00,,,0.00,Wunderground v.1.15,2013-01-14 13:15:00,
2013-01-14 05:20:00,40.5,6.5,30.33,WNW,288,5.0,7.0,24,0.00,,,0.00,Wunderground v.1.15,2013-01-14 13:20:00,
2013-01-14 05:30:00,40.9,6.8,30.33,SW,216,8.0,8.0,24,0.00,,,0.00,Wunderground v.1.15,2013-01-14 13:30:00,
2013-01-14 05:35:00,40.8,5.8,30.33,West,275,7.0,8.0,23,0.00,,,0.00,Wunderground v.1.15,2013-01-14 13:35:00,
2013-01-14 05:40:00,40.6,6.6,30.33,WNW,293,5.0,5.0,24,0.00,,,0.00,Wunderground v.1.15,2013-01-14 13:40:00,
2013-01-14 05:45:00,40.2,8.0,30.35,WNW,293,2.0,5.0,26,0.00,,,0.00,Wunderground v.1.15,2013-01-14 13:45:00,
2013-01-14 05:55:00,39.8,6.8,30.35,WNW,292,3.0,3.0,25,0.00,,,0.00,Wunderground v.1.15,2013-01-14 13:55:00,
2013-01-14 06:00:00,39.9,6.9,30.36,SSE,149,3.0,5.0,25,0.00,,,0.00,Wunderground v.1.15,2013-01-14 14:00:00,
2013-01-14 06:05:00,39.8,6.8,30.36,SW,218,3.0,5.0,25,0.00,,,0.00,Wunderground v.1.15,2013-01-14 14:05:00,
2013-01-14 06:10:00,38.9,6.0,30.36,WSW,246,4.0,5.0,25,0.00,,,0.00,Wunderground v.1.15,2013-01-14 14:10:00,
2013-01-14 06:15:00,40.5,6.5,30.36,NE,55,5.0,5.0,24,0.00,,,0.00,Wunderground v.1.15,2013-01-14 14:15:00,
2013-01-14 06:25:00,41.1,6.0,30.36,South,171,3.0,6.0,23,0.00,,,0.00,Wunderground v.1.15,2013-01-14 14:25:00,
2013-01-14 06:30:00,40.3,7.2,30.38,SSE,155,2.0,2.0,25,0.00,,,0.00,Wunderground v.1.15,2013-01-14 14:30:00,
2013-01-14 06:35:00,39.6,7.5,30.38,WSW,238,2.0,2.0,26,0.00,,,0.00,Wunderground v.1.15,2013-01-14 14:35:00,
2013-01-14 06:40:00,38.8,6.8,30.38,SSE,164,1.0,1.0,26,0.00,,,0.00,Wunderground v.1.15,2013-01-14 14:40:00,
2013-01-14 06:50:00,38.2,8.7,30.38,West,265,1.0,1.0,29,0.00,,,0.00,Wunderground v.1.15,2013-01-14 14:50:00,
2013-01-14 07:00:00,36.2,11.8,30.38,West,265,1.0,1.0,36,0.00,,,0.00,Wunderground v.1.15,2013-01-14 15:00:00,
2013-01-14 07:05:00,35.0,10.7,30.38,West,265,1.0,1.0,36,0.00,,,0.00,Wunderground v.1.15,2013-01-14 15:05:00,
2013-01-14 07:10:00,34.3,11.9,30.38,West,265,1.0,1.0,39,0.00,,,0.00,Wunderground v.1.15,2013-01-14 15:10:00,
2013-01-14 07:20:00,33.4,11.6,30.38,West,265,1.0,2.0,40,0.00,,,0.00,Wunderground v.1.15,2013-01-14 15:20:00,
2013-01-14 07:25:00,32.9,11.2,30.38,West,265,1.0,2.0,40,0.00,,,0.00,Wunderground v.1.15,2013-01-14 15:25:00,
2013-01-14 07:30:00,32.7,12.1,30.39,West,265,1.0,2.0,42,0.00,,,0.00,Wunderground v.1.15,2013-01-14 15:30:00,
2013-01-14 07:35:00,31.6,13.2,30.39,WNW,298,1.0,2.0,46,0.00,,,0.00,Wunderground v.1.15,2013-01-14 15:35:00,
2013-01-14 07:40:00,31.0,13.1,30.39,WNW,298,1.0,1.0,47,0.00,,,0.00,Wunderground v.1.15,2013-01-14 15:40:00,
2013-01-14 07:50:00,30.7,12.3,30.39,WNW,297,1.0,1.0,46,0.00,,,0.00,Wunderground v.1.15,2013-01-14 15:50:00,
2013-01-14 07:55:00,30.7,12.8,30.39,WNW,297,0.0,1.0,47,0.00,,,0.00,Wunderground v.1.15,2013-01-14 15:55:00,
2013-01-14 08:00:00,30.6,13.2,30.40,WNW,297,0.0,0.0,48,0.00,,,0.00,Wunderground v.1.15,2013-01-14 16:00:00,
2013-01-14 08:05:00,30.7,13.3,30.40,WNW,297,0.0,1.0,48,0.00,,,0.00,Wunderground v.1.15,2013-01-14 16:05:00,
2013-01-14 08:10:00,31.2,12.3,30.40,WNW,297,0.0,0.0,45,0.00,,,0.00,Wunderground v.1.15,2013-01-14 16:10:00,
2013-01-14 08:20:00,31.9,11.9,30.40,WSW,239,0.0,3.0,43,0.00,,,0.00,Wunderground v.1.15,2013-01-14 16:20:00,
2013-01-14 08:25:00,34.7,12.2,30.40,East,82,1.0,3.0,39,0.00,,,0.00,Wunderground v.1.15,2013-01-14 16:25:00,
2013-01-14 08:30:00,35.3,13.9,30.41,East,81,1.0,1.0,41,0.00,,,0.00,Wunderground v.1.15,2013-01-14 16:30:00,
2013-01-14 08:40:00,40.6,7.5,30.41,SW,227,2.0,2.0,25,0.00,,,0.00,Wunderground v.1.15,2013-01-14 16:40:00,
2013-01-14 08:45:00,40.8,10.9,30.41,SW,227,1.0,2.0,29,0.00,,,0.00,Wunderground v.1.15,2013-01-14 16:45:00,
2013-01-14 08:50:00,42.1,5.9,30.41,SW,217,1.0,3.0,22,0.00,,,0.00,Wunderground v.1.15,2013-01-14 16:50:00,
2013-01-14 08:55:00,43.1,5.7,30.41,SSW,213,2.0,4.0,21,0.00,,,0.00,Wunderground v.1.15,2013-01-14 16:55:00,
2013-01-14 09:00:00,43.2,7.8,30.41,West,274,4.0,4.0,23,0.00,,,0.00,Wunderground v.1.15,2013-01-14 17:00:00,
2013-01-14 09:10:00,43.9,6.4,30.41,NE,46,4.0,4.0,21,0.00,,,0.00,Wunderground v.1.15,2013-01-14 17:10:00,
2013-01-14 09:15:00,44.8,6.1,30.41,West,278,2.0,4.0,20,0.00,,,0.00,Wunderground v.1.15,2013-01-14 17:15:00,
2013-01-14 09:20:00,45.4,5.5,30.41,SSE,166,1.0,1.0,19,0.00,,,0.00,Wunderground v.1.15,2013-01-14 17:20:00,
2013-01-14 09:30:00,44.9,6.2,30.41,East,82,5.0,5.0,20,0.00,,,0.00,Wunderground v.1.15,2013-01-14 17:30:00,
2013-01-14 09:35:00,45.4,5.5,30.41,SE,130,7.0,7.0,19,0.00,,,0.00,Wunderground v.1.15,2013-01-14 17:35:00,
2013-01-14 09:40:00,45.7,6.8,30.41,East,93,6.0,6.0,20,0.00,,,0.00,Wunderground v.1.15,2013-01-14 17:40:00,
2013-01-14 09:45:00,45.7,5.7,30.41,ESE,107,5.0,12.0,19,0.00,,,0.00,Wunderground v.1.15,2013-01-14 17:45:00,
2013-01-14 09:50:00,46.0,6.0,30.41,SE,146,7.0,9.0,19,0.00,,,0.00,Wunderground v.1.15,2013-01-14 17:50:00,
2013-01-14 09:55:00,46.1,6.0,30.41,SE,138,9.0,11.0,19,0.00,,,0.00,Wunderground v.1.15,2013-01-14 17:55:00,
2013-01-14 10:00:00,46.1,6.0,30.41,ESE,103,10.0,12.0,19,0.00,,,0.00,Wunderground v.1.15,2013-01-14 18:00:00,
2013-01-14 10:10:00,46.7,6.5,30.41,ESE,119,10.0,10.0,19,0.00,,,0.00,Wunderground v.1.15,2013-01-14 18:10:00,
2013-01-14 10:15:00,46.8,6.6,30.41,SE,136,9.0,10.0,19,0.00,,,0.00,Wunderground v.1.15,2013-01-14 18:15:00,
2013-01-14 10:20:00,47.0,6.8,30.41,ESE,116,10.0,12.0,19,0.00,,,0.00,Wunderground v.1.15,2013-01-14 18:20:00,
2013-01-14 10:30:00,47.0,6.8,30.42,SW,225,7.0,7.0,19,0.00,,,0.00,Wunderground v.1.15,2013-01-14 18:30:00,
2013-01-14 10:40:00,47.0,5.6,30.42,SW,223,9.0,10.0,18,0.00,,,0.00,Wunderground v.1.15,2013-01-14 18:40:00,
2013-01-14 10:45:00,47.3,5.9,30.41,SW,223,9.0,10.0,18,0.00,,,0.00,Wunderground v.1.15,2013-01-14 18:45:00,
2013-01-14 10:55:00,48.0,5.2,30.41,SW,236,5.0,7.0,17,0.00,,,0.00,Wunderground v.1.15,2013-01-14 18:55:00,
2013-01-14 11:00:00,48.5,6.8,30.41,SSW,200,4.0,7.0,18,0.00,,,0.00,Wunderground v.1.15,2013-01-14 19:00:00,
2013-01-14 11:10:00,49.2,6.2,30.41,SW,215,4.0,5.0,17,0.00,,,0.00,Wunderground v.1.15,2013-01-14 19:10:00,
2013-01-14 11:15:00,48.9,5.9,30.41,WSW,253,5.0,7.0,17,0.00,,,0.00,Wunderground v.1.15,2013-01-14 19:15:00,
2013-01-14 11:25:00,48.8,5.8,30.41,West,263,7.0,7.0,17,0.00,,,0.00,Wunderground v.1.15,2013-01-14 19:25:00,
2013-01-14 11:40:00,49.9,6.7,30.39,SW,235,4.0,4.0,17,0.00,,,0.00,Wunderground v.1.15,2013-01-14 19:40:00,
2013-01-14 11:50:00,50.7,7.4,30.38,SE,140,3.0,3.0,17,0.00,,,0.00,Wunderground v.1.15,2013-01-14 19:50:00,
2013-01-14 11:55:00,51.3,7.9,30.38,West,263,3.0,3.0,17,0.00,,,0.00,Wunderground v.1.15,2013-01-14 19:55:00,
2013-01-14 12:00:00,50.7,6.1,30.37,SW,236,4.0,4.0,16,0.00,,,0.00,Wunderground v.1.15,2013-01-14 20:00:00,
2013-01-14 12:10:00,51.3,6.5,30.37,WSW,252,4.0,4.0,16,0.00,,,0.00,Wunderground v.1.15,2013-01-14 20:10:00,
2013-01-14 12:15:00,51.7,8.2,30.37,SSE,147,3.0,4.0,17,0.00,,,0.00,Wunderground v.1.15,2013-01-14 20:15:00,
2013-01-14 12:20:00,52.2,8.6,30.37,SSE,147,2.0,2.0,17,0.00,,,0.00,Wunderground v.1.15,2013-01-14 20:20:00,
2013-01-14 12:25:00,52.2,7.3,30.37,West,279,3.0,3.0,16,0.00,,,0.00,Wunderground v.1.15,2013-01-14 20:25:00,
2013-01-14 12:35:00,52.5,7.5,30.36,SE,143,2.0,3.0,16,0.00,,,0.00,Wunderground v.1.15,2013-01-14 20:35:00,
2013-01-14 12:40:00,52.8,9.1,30.36,SSW,203,1.0,1.0,17,0.00,,,0.00,Wunderground v.1.15,2013-01-14 20:40:00,
2013-01-14 12:45:00,52.8,7.8,30.36,ESE,119,2.0,8.0,16,0.00,,,0.00,Wunderground v.1.15,2013-01-14 20:45:00,
2013-01-14 12:50:00,52.6,7.6,30.36,East,85,5.0,8.0,16,0.00,,,0.00,Wunderground v.1.15,2013-01-14 20:50:00,
2013-01-14 13:00:00,53.6,7.0,30.34,WNW,286,3.0,3.0,15,0.00,,,0.00,Wunderground v.1.15,2013-01-14 21:00:00,
2013-01-14 13:05:00,53.8,7.1,30.34,SE,133,2.0,4.0,15,0.00,,,0.00,Wunderground v.1.15,2013-01-14 21:05:00,
2013-01-14 13:10:00,53.6,9.8,30.34,ESE,118,2.0,10.0,17,0.00,,,0.00,Wunderground v.1.15,2013-01-14 21:10:00,
2013-01-14 13:20:00,53.1,9.4,30.35,East,101,9.0,11.0,17,0.00,,,0.00,Wunderground v.1.15,2013-01-14 21:20:00,
2013-01-14 13:25:00,53.2,9.4,30.35,ESE,109,9.0,14.0,17,0.00,,,0.00,Wunderground v.1.15,2013-01-14 21:25:00,
2013-01-14 13:30:00,52.8,9.1,30.36,SSE,160,11.0,11.0,17,0.00,,,0.00,Wunderground v.1.15,2013-01-14 21:30:00,
2013-01-14 13:40:00,53.1,9.4,30.36,East,99,7.0,7.0,17,0.00,,,0.00,Wunderground v.1.15,2013-01-14 21:40:00,
2013-01-14 13:45:00,53.2,9.4,30.36,ENE,69,7.0,12.0,17,0.00,,,0.00,Wunderground v.1.15,2013-01-14 21:45:00,
2013-01-14 13:55:00,53.6,9.8,30.36,SE,128,7.0,7.0,17,0.00,,,0.00,Wunderground v.1.15,2013-01-14 21:55:00,
2013-01-14 14:05:00,54.2,10.3,30.35,SW,221,5.0,7.0,17,0.00,,,0.00,Wunderground v.1.15,2013-01-14 22:05:00,
2013-01-14 14:10:00,54.2,11.5,30.35,West,273,4.0,6.0,18,0.00,,,0.00,Wunderground v.1.15,2013-01-14 22:10:00,
2013-01-14 14:15:00,54.5,11.8,30.36,WSW,255,5.0,6.0,18,0.00,,,0.00,Wunderground v.1.15,2013-01-14 22:15:00,
2013-01-14 14:20:00,54.7,10.7,30.36,SSW,196,5.0,7.0,17,0.00,,,0.00,Wunderground v.1.15,2013-01-14 22:20:00,
2013-01-14 14:30:00,54.7,10.7,30.36,West,269,7.0,8.0,17,0.00,,,0.00,Wunderground v.1.15,2013-01-14 22:30:00,
2013-01-14 14:40:00,54.2,11.5,30.36,East,98,5.0,6.0,18,0.00,,,0.00,Wunderground v.1.15,2013-01-14 22:40:00,
2013-01-14 14:45:00,54.4,11.7,30.36,SW,229,6.0,6.0,18,0.00,,,0.00,Wunderground v.1.15,2013-01-14 22:45:00,
2013-01-14 14:50:00,54.2,11.5,30.36,SE,133,5.0,7.0,18,0.00,,,0.00,Wunderground v.1.15,2013-01-14 22:50:00,
2013-01-14 15:00:00,54.4,11.7,30.37,SE,133,6.0,6.0,18,0.00,,,0.00,Wunderground v.1.15,2013-01-14 23:00:00,
2013-01-14 15:05:00,54.2,11.5,30.37,ESE,119,7.0,7.0,18,0.00,,,0.00,Wunderground v.1.15,2013-01-14 23:05:00,
2013-01-14 15:10:00,54.2,12.8,30.37,East,101,6.0,7.0,19,0.00,,,0.00,Wunderground v.1.15,2013-01-14 23:10:00,
2013-01-14 15:20:00,54.2,12.8,30.37,ESE,117,5.0,5.0,19,0.00,,,0.00,Wunderground v.1.15,2013-01-14 23:20:00,
2013-01-14 15:25:00,54.2,11.5,30.37,SE,132,4.0,5.0,18,0.00,,,0.00,Wunderground v.1.15,2013-01-14 23:25:00,
2013-01-14 15:30:00,54.2,11.5,30.37,East,92,5.0,5.0,18,0.00,,,0.00,Wunderground v.1.15,2013-01-14 23:30:00,
2013-01-14 15:35:00,54.1,12.7,30.37,East,98,3.0,5.0,19,0.00,,,0.00,Wunderground v.1.15,2013-01-14 23:35:00,
2013-01-14 15:40:00,53.9,12.5,30.37,SE,130,2.0,5.0,19,0.00,,,0.00,Wunderground v.1.15,2013-01-14 23:40:00,
2013-01-14 15:50:00,53.2,11.9,30.37,West,259,2.0,3.0,19,0.00,,,0.00,Wunderground v.1.15,2013-01-14 23:50:00,
2013-01-14 15:55:00,53.6,12.3,30.37,WNW,288,2.0,3.0,19,0.00,,,0.00,Wunderground v.1.15,2013-01-14 23:55:00,
2013-01-14 16:05:00,53.3,13.2,30.37,WNW,288,0.0,2.0,20,0.00,,,0.00,Wunderground v.1.15,2013-01-15 00:05:00,
2013-01-14 16:10:00,52.8,13.9,30.37,WNW,288,0.0,0.0,21,0.00,,,0.00,Wunderground v.1.15,2013-01-15 00:10:00,
2013-01-14 16:20:00,51.0,16.4,30.37,WNW,286,0.0,0.0,25,0.00,,,0.00,Wunderground v.1.15,2013-01-15 00:20:00,
2013-01-14 16:25:00,50.7,16.1,30.37,WNW,286,0.0,2.0,25,0.00,,,0.00,Wunderground v.1.15,2013-01-15 00:25:00,
2013-01-14 16:30:00,50.7,13.2,30.37,SSE,167,0.0,2.0,22,0.00,,,0.00,Wunderground v.1.15,2013-01-15 00:30:00,
2013-01-14 16:35:00,50.5,15.0,30.37,SSW,207,1.0,2.0,24,0.00,,,0.00,Wunderground v.1.15,2013-01-15 00:35:00,
2013-01-14 16:40:00,51.0,14.4,30.37,West,275,1.0,1.0,23,0.00,,,0.00,Wunderground v.1.15,2013-01-15 00:40:00,
2013-01-14 16:50:00,52.0,13.2,30.38,WSW,251,3.0,5.0,21,0.00,,,0.00,Wunderground v.1.15,2013-01-15 00:50:00,
2013-01-14 16:55:00,51.9,18.0,30.38,West,275,4.0,5.0,26,0.00,,,0.00,Wunderground v.1.15,2013-01-15 00:55:00,
2013-01-14 17:00:00,51.3,16.6,30.37,SW,235,3.0,3.0,25,0.00,,,0.00,Wunderground v.1.15,2013-01-15 01:00:00,
2013-01-14 17:05:00,50.4,14.9,30.37,SW,235,2.0,3.0,24,0.00,,,0.00,Wunderground v.1.15,2013-01-15 01:05:00,
2013-01-14 17:15:00,48.3,18.3,30.37,SW,235,2.0,2.0,30,0.00,,,0.00,Wunderground v.1.15,2013-01-15 01:15:00,
2013-01-14 17:20:00,46.8,20.6,30.37,SW,235,2.0,2.0,35,0.00,,,0.00,Wunderground v.1.15,2013-01-15 01:20:00,
2013-01-14 17:25:00,45.5,22.5,30.37,SW,235,1.0,2.0,40,0.00,,,0.00,Wunderground v.1.15,2013-01-15 01:25:00,
2013-01-14 17:30:00,44.1,21.9,30.37,SW,234,1.0,2.0,41,0.00,,,0.00,Wunderground v.1.15,2013-01-15 01:30:00,
2013-01-14 17:35:00,43.3,20.0,30.37,West,268,3.0,3.0,39,0.00,,,0.00,Wunderground v.1.15,2013-01-15 01:35:00,
2013-01-14 17:45:00,42.9,21.4,30.37,West,269,3.0,3.0,42,0.00,,,0.00,Wunderground v.1.15,2013-01-15 01:45:00,
2013-01-14 17:50:00,42.1,21.2,30.37,WNW,294,2.0,2.0,43,0.00,,,0.00,Wunderground v.1.15,2013-01-15 01:50:00,
2013-01-14 17:55:00,41.3,21.5,30.37,WNW,294,1.0,2.0,45,0.00,,,0.00,Wunderground v.1.15,2013-01-15 01:55:00,
2013-01-14 18:05:00,40.1,21.5,30.38,WNW,294,1.0,2.0,47,0.00,,,0.00,Wunderground v.1.15,2013-01-15 02:05:00,
2013-01-14 18:10:00,39.6,21.5,30.38,WNW,294,1.0,1.0,48,0.00,,,0.00,Wunderground v.1.15,2013-01-15 02:10:00,
2013-01-14 18:15:00,39.2,21.6,30.38,WNW,294,1.0,2.0,49,0.00,,,0.00,Wunderground v.1.15,2013-01-15 02:15:00,
2013-01-14 18:20:00,38.9,21.3,30.38,WNW,294,1.0,4.0,49,0.00,,,0.00,Wunderground v.1.15,2013-01-15 02:20:00,
2013-01-14 18:25:00,38.5,21.5,30.38,WNW,294,2.0,4.0,50,0.00,,,0.00,Wunderground v.1.15,2013-01-15 02:25:00,
2013-01-14 18:30:00,37.9,21.4,30.38,WNW,294,2.0,2.0,51,0.00,,,0.00,Wunderground v.1.15,2013-01-15 02:30:00,
2013-01-14 18:40:00,37.2,22.1,30.38,WNW,294,1.0,1.0,54,0.00,,,0.00,Wunderground v.1.15,2013-01-15 02:40:00,
2013-01-14 18:45:00,36.9,21.8,30.38,WNW,294,1.0,2.0,54,0.00,,,0.00,Wunderground v.1.15,2013-01-15 02:45:00,
2013-01-14 18:50:00,36.6,21.9,30.38,WNW,294,2.0,2.0,55,0.00,,,0.00,Wunderground v.1.15,2013-01-15 02:50:00,
2013-01-14 18:55:00,36.2,22.0,30.38,WNW,292,2.0,2.0,56,0.00,,,0.00,Wunderground v.1.15,2013-01-15 02:55:00,
2013-01-14 19:00:00,35.8,21.6,30.39,WNW,289,2.0,2.0,56,0.00,,,0.00,Wunderground v.1.15,2013-01-15 03:00:00,
2013-01-14 19:10:00,35.2,21.5,30.39,WNW,289,2.0,2.0,57,0.00,,,0.00,Wunderground v.1.15,2013-01-15 03:10:00,
2013-01-14 19:15:00,35.0,21.7,30.39,WNW,289,1.0,2.0,58,0.00,,,0.00,Wunderground v.1.15,2013-01-15 03:15:00,
2013-01-14 19:25:00,34.3,21.8,30.39,WNW,289,2.0,3.0,60,0.00,,,0.00,Wunderground v.1.15,2013-01-15 03:25:00,
2013-01-14 19:30:00,34.1,21.7,30.39,SW,233,2.0,2.0,60,0.00,,,0.00,Wunderground v.1.15,2013-01-15 03:30:00,
2013-01-14 19:35:00,34.0,21.6,30.39,NW,320,2.0,2.0,60,0.00,,,0.00,Wunderground v.1.15,2013-01-15 03:35:00,
2013-01-14 19:45:00,34.0,21.6,30.39,SSW,202,2.0,3.0,60,0.00,,,0.00,Wunderground v.1.15,2013-01-15 03:45:00,
2013-01-14 19:50:00,34.0,22.0,30.39,NW,316,2.0,2.0,61,0.00,,,0.00,Wunderground v.1.15,2013-01-15 03:50:00,
2013-01-14 19:55:00,33.8,22.1,30.39,NW,316,1.0,2.0,62,0.00,,,0.00,Wunderground v.1.15,2013-01-15 03:55:00,
2013-01-14 20:00:00,33.7,22.1,30.39,NNW,331,1.0,5.0,62,0.00,,,0.00,Wunderground v.1.15,2013-01-15 04:00:00,
2013-01-14 20:10:00,33.2,21.6,30.39,WNW,296,2.0,3.0,62,0.00,,,0.00,Wunderground v.1.15,2013-01-15 04:10:00,
2013-01-14 20:15:00,33.1,21.9,30.39,WNW,296,2.0,3.0,63,0.00,,,0.00,Wunderground v.1.15,2013-01-15 04:15:00,
2013-01-14 20:20:00,32.8,22.0,30.39,West,263,2.0,3.0,64,0.00,,,0.00,Wunderground v.1.15,2013-01-15 04:20:00,
2013-01-14 20:30:00,32.8,22.0,30.39,SW,232,1.0,1.0,64,0.00,,,0.00,Wunderground v.1.15,2013-01-15 04:30:00,
2013-01-14 20:35:00,32.7,22.2,30.39,SW,232,1.0,2.0,65,0.00,,,0.00,Wunderground v.1.15,2013-01-15 04:35:00,
2013-01-14 20:40:00,32.4,21.6,30.39,SW,232,0.0,0.0,64,0.00,,,0.00,Wunderground v.1.15,2013-01-15 04:40:00,
2013-01-14 20:45:00,32.1,21.7,30.39,SW,232,0.0,1.0,65,0.00,,,0.00,Wunderground v.1.15,2013-01-15 04:45:00,
2013-01-14 20:50:00,31.8,21.7,30.39,SW,232,1.0,1.0,66,0.00,,,0.00,Wunderground v.1.15,2013-01-15 04:50:00,
2013-01-14 21:00:00,31.2,21.9,30.39,SW,232,1.0,1.0,68,0.00,,,0.00,Wunderground v.1.15,2013-01-15 05:00:00,
2013-01-14 21:05:00,30.9,21.6,30.39,SW,232,1.0,1.0,68,0.00,,,0.00,Wunderground v.1.15,2013-01-15 05:05:00,
2013-01-14 21:10:00,30.7,21.4,30.39,SW,232,0.0,0.0,68,0.00,,,0.00,Wunderground v.1.15,2013-01-15 05:10:00,
2013-01-14 21:15:00,30.6,21.3,30.40,SW,232,0.0,0.0,68,0.00,,,0.00,Wunderground v.1.15,2013-01-15 05:15:00,
2013-01-14 21:20:00,30.4,21.4,30.40,SW,232,0.0,0.0,69,0.00,,,0.00,Wunderground v.1.15,2013-01-15 05:20:00,
2013-01-14 21:25:00,30.4,21.4,30.40,SW,232,0.0,0.0,69,0.00,,,0.00,Wunderground v.1.15,2013-01-15 05:25:00,
2013-01-14 21:30:00,30.3,21.3,30.40,SW,232,0.0,2.0,69,0.00,,,0.00,Wunderground v.1.15,2013-01-15 05:30:00,
2013-01-14 21:40:00,29.8,21.2,30.40,SW,232,1.0,1.0,70,0.00,,,0.00,Wunderground v.1.15,2013-01-15 05:40:00,
2013-01-14 21:45:00,29.7,21.4,30.40,SW,232,1.0,1.0,71,0.00,,,0.00,Wunderground v.1.15,2013-01-15 05:45:00,
2013-01-14 21:50:00,29.5,21.3,30.40,SW,232,0.0,0.0,71,0.00,,,0.00,Wunderground v.1.15,2013-01-15 05:50:00,
2013-01-14 22:00:00,29.4,21.5,30.39,SW,232,1.0,1.0,72,0.00,,,0.00,Wunderground v.1.15,2013-01-15 06:00:00,
2013-01-14 22:05:00,29.3,21.4,30.39,SW,232,1.0,1.0,72,0.00,,,0.00,Wunderground v.1.15,2013-01-15 06:05:00,
2013-01-14 22:10:00,29.1,21.2,30.39,SW,232,1.0,2.0,72,0.00,,,0.00,Wunderground v.1.15,2013-01-15 06:10:00,
2013-01-14 22:15:00,29.1,21.5,30.40,WNW,286,2.0,2.0,73,0.00,,,0.00,Wunderground v.1.15,2013-01-15 06:15:00,
2013-01-14 22:20:00,29.0,21.4,30.40,WNW,286,1.0,1.0,73,0.00,,,0.00,Wunderground v.1.15,2013-01-15 06:20:00,
2013-01-14 22:30:00,28.8,21.2,30.40,WNW,286,0.0,1.0,73,0.00,,,0.00,Wunderground v.1.15,2013-01-15 06:30:00,
2013-01-14 22:35:00,28.8,21.6,30.40,WNW,286,0.0,1.0,74,0.00,,,0.00,Wunderground v.1.15,2013-01-15 06:35:00,
2013-01-14 22:40:00,28.7,21.5,30.40,WNW,286,0.0,0.0,74,0.00,,,0.00,Wunderground v.1.15,2013-01-15 06:40:00,
2013-01-14 22:45:00,28.5,21.3,30.41,WNW,286,0.0,0.0,74,0.00,,,0.00,Wunderground v.1.15,2013-01-15 06:45:00,
2013-01-14 22:55:00,28.2,21.0,30.41,WNW,286,0.0,2.0,74,0.00,,,0.00,Wunderground v.1.15,2013-01-15 06:55:00,
2013-01-14 23:00:00,28.1,21.2,30.41,WNW,286,0.0,0.0,75,0.00,,,0.00,Wunderground v.1.15,2013-01-15 07:00:00,
2013-01-14 23:05:00,27.9,21.0,30.41,WNW,286,0.0,0.0,75,0.00,,,0.00,Wunderground v.1.15,2013-01-15 07:05:00,
2013-01-14 23:10:00,27.9,21.0,30.41,WNW,286,0.0,2.0,75,0.00,,,0.00,Wunderground v.1.15,2013-01-15 07:10:00,
2013-01-14 23:20:00,27.8,21.2,30.41,WNW,286,1.0,1.0,76,0.00,,,0.00,Wunderground v.1.15,2013-01-15 07:20:00,
2013-01-14 23:25:00,27.6,21.0,30.41,WNW,286,0.0,1.0,76,0.00,,,0.00,Wunderground v.1.15,2013-01-15 07:25:00,
2013-01-14 23:30:00,27.6,21.0,30.41,WNW,286,0.0,0.0,76,0.00,,,0.00,Wunderground v.1.15,2013-01-15 07:30:00,
2013-01-14 23:35:00,27.6,21.0,30.41,WNW,286,0.0,0.0,76,0.00,,,0.00,Wunderground v.1.15,2013-01-15 07:35:00,
2013-01-14 23:45:00,27.5,20.9,30.42,WNW,286,0.0,0.0,76,0.00,,,0.00,Wunderground v.1.15,2013-01-15 07:45:00,
2013-01-14 23:50:00,27.3,21.0,30.42,WNW,286,0.0,0.0,77,0.00,,,0.00,Wunderground v.1.15,2013-01-15 07:50:00,
2013-01-14 23:55:00,27.3,21.0,30.42,WNW,286,0.0,0.0,77,0.00,,,0.00,Wunderground v.1.15,2013-01-15 07:55:00,